Terminal Aerodrome Forecast
Issued by NWS Albany, NY

Home | Current Version | Previous Version | Text Only | Print | Product List | Glossary On
Versions: 1 2 3 4 5 6 7 8 9 10 11 12 13 14 15 16 17 18
000
FTUS41 KALY 191145 CCA
TAFGFL
TAF COR
KGFL 191145Z 1912/2012 VRB03KT P6SM SCT250 WS020/29035KT
      TEMPO 1912/1913 2SM BR
     FM191500 22007KT P6SM BKN200
     FM191700 25010KT P6SM SCT015 BKN040
     FM192000 29010G18KT P6SM OVC040
     FM200000 31009KT P6SM VCSH OVC035
     FM200600 34007KT P6SM FEW035=

USA.gov is the U.S. government's official web portal to all federal, state and local government web resources and services.